Terminal Aerodrome Forecast
Issued by NWS

Home | Current Version | Previous Version | Text Only | Print | Product List | Glossary On
Versions: 1 2 3 4 5 6 7 8 9 10 11 12
000
FTUS46 KPDT 242300
TAFYKM
TAF
KYKM 242320Z 2500/2524 26005KT P6SM -RA OVC070
     FM250900 28006KT P6SM BKN050 OVC080
     FM251800 VRB05KT P6SM -SHRA SCT050 BKN080=

USA.gov is the U.S. government's official web portal to all federal, state and local government web resources and services.